PDT,Max TemperatureF,Mean TemperatureF,Min TemperatureF,Max Dew PointF,MeanDew PointF,Min DewpointF,Max Humidity, Mean Humidity, Min Humidity, Max Sea Level PressureIn, Mean Sea Level PressureIn, Min Sea Level PressureIn, Max VisibilityMiles, Mean VisibilityMiles, Min VisibilityMiles, Max Wind SpeedMPH, Mean Wind SpeedMPH, Max Gust SpeedMPH,PrecipitationIn, CloudCover, Events, WindDirDegrees
2013-8-1,69,62,57,55,54,53,89,76,61,30.10,30.07,30.05,10,10,8,10,7,,0.00,8,,173
2013-8-2,64,62,60,59,56,53,90,81,70,30.15,30.12,30.07,10,10,4,8,5,,0.05,8,Rain,173
2013-8-3,73,66,60,61,58,55,96,81,57,30.14,30.12,30.07,10,8,2,8,2,,0.03,7,Rain,313
2013-8-4,81,70,60,61,58,56,88,69,47,30.08,30.03,29.95,10,10,10,12,7,,0.00,2,,318
2013-8-5,84,72,60,60,58,54,93,63,37,30.03,29.99,29.93,10,10,9,10,3,,0.00,0,,328
2013-8-6,86,72,59,58,55,51,87,59,31,30.02,29.98,29.92,10,10,9,7,4,,0.00,0,,316
2013-8-7,86,72,59,58,55,52,87,59,32,30.03,29.99,29.95,10,10,8,10,3,,0.00,0,,303
2013-8-8,82,70,59,60,57,55,88,67,44,30.06,30.01,29.95,10,8,7,10,5,,0.00,1,,288
2013-8-9,82,70,60,59,56,54,86,61,42,29.97,29.92,29.86,10,7,6,9,5,,0.00,0,,313
2013-8-10,79,68,60,63,60,57,93,75,56,30.03,29.98,29.92,10,6,4,9,4,,0.08,2,Rain-Thunderstorm,177
2013-8-11,77,67,59,57,55,53,83,67,50,30.09,30.05,30.00,10,6,5,8,5,,0.00,5,,187
2013-8-12,79,70,62,57,54,53,75,60,43,30.09,30.06,30.02,10,9,5,13,3,,0.00,5,,224
2013-8-13,81,70,59,58,55,49,83,61,33,30.12,30.05,29.94,10,10,10,9,3,,0.00,1,,319
2013-8-14,82,70,59,63,57,53,93,69,37,29.99,29.96,29.93,10,10,10,7,3,,0.02,2,Rain,154
2013-8-15,71,67,64,66,64,63,94,88,81,30.01,29.98,29.95,10,9,2,5,1,,0.05,7,Rain,170
2013-8-16,84,73,64,63,57,44,94,64,25,30.03,29.99,29.96,10,10,8,8,2,,0.00,5,,204
2013-8-17,79,71,64,58,56,53,75,61,48,30.09,30.06,30.03,10,10,10,8,4,16,0.00,3,,173
2013-8-18,79,70,62,59,56,51,80,66,46,30.15,30.11,30.08,10,10,10,10,4,20,0.00,6,,195
2013-8-19,80,70,62,57,54,50,78,61,45,30.13,30.10,30.07,10,10,8,13,4,16,0.00,5,,269
2013-8-20,75,68,61,54,51,48,67,56,43,30.18,30.14,30.08,10,10,9,14,6,,0.00,2,,328
2013-8-21,80,67,54,56,53,49,86,59,39,30.11,30.04,29.95,10,10,7,14,6,,0.00,0,,324
2013-8-22,82,70,57,58,54,52,84,57,36,29.96,29.89,29.82,10,10,10,9,4,,0.00,0,,320
2013-8-23,75,68,62,57,56,53,82,67,52,29.92,29.89,29.86,10,10,10,12,6,18,0.00,5,,170
2013-8-24,77,68,60,58,55,49,88,66,40,29.94,29.91,29.87,10,10,10,8,4,,0.00,7,,170
2013-8-25,71,66,61,59,54,50,81,66,51,29.96,29.93,29.89,10,10,7,8,2,,0.00,4,Rain,319
2013-8-26,75,68,61,60,57,50,90,74,41,29.98,29.92,29.88,10,10,8,8,2,,0.05,7,Rain,163
2013-8-27,78,70,62,60,59,56,93,71,52,29.98,29.90,29.81,10,10,5,9,2,,0.07,5,Rain,324
2013-8-28,79,70,62,63,61,60,97,77,54,29.91,29.88,29.85,10,9,4,6,1,,0.25,5,Rain,313
2013-8-29,73,68,64,67,64,61,100,90,76,30.04,29.94,29.88,10,7,1,8,2,,0.85,7,Rain,143
2013-8-30,79,70,62,63,57,50,94,70,39,30.17,30.11,30.05,10,10,7,10,3,,0.00,3,,238
2013-8-31,80,67,55,59,56,54,94,70,45,30.10,29.98,29.85,10,9,2,13,5,,0.00,1,,318